Time;durP1;ratioP1;P1;durP2;ratioP2;P2;SDS_P1;SDS_P2;PMS_P1;PMS_P2;Temp;Humidity;BMP_temperature;BMP_pressure;BME280_temperature;BME280_humidity;BME280_pressure;Samples;Min_cycle;Max_cycle;Signal;HPM_P1;HPM_P2
2021/12/15 00:01:31;;;;;;;120.53;48.53;;;;;;;;;;5054722;28;20403;-70
2021/12/15 00:03:58;;;;;;;98.40;44.63;;;;;;;;;;5053395;28;20426;-74
2021/12/15 00:06:24;;;;;;;107.40;47.37;;;;;;;;;;5054647;28;20407;-74
2021/12/15 00:08:52;;;;;;;113.87;47.60;;;;;;;;;;5053087;28;20557;-74
2021/12/15 00:11:18;;;;;;;100.70;46.00;;;;;;;;;;5054564;28;20396;-70
2021/12/15 00:13:45;;;;;;;119.13;45.20;;;;;;;;;;5054459;28;20971;-68
2021/12/15 00:16:12;;;;;;;123.13;48.57;;;;;;;;;;5053057;28;21065;-69
2021/12/15 00:18:42;;;;;;;130.50;49.80;;;;;;;;;;5054447;28;20407;-69
2021/12/15 00:21:10;;;;;;;110.63;46.97;;;;;;;;;;5054329;28;20744;-68
2021/12/15 00:23:37;;;;;;;125.10;47.77;;;;;;;;;;5054587;28;20733;-68
2021/12/15 00:26:03;;;;;;;126.17;47.87;;;;;;;;;;5052992;28;20389;-72
2021/12/15 00:28:29;;;;;;;133.23;49.67;;;;;;;;;;5054177;28;20415;-73
2021/12/15 00:30:55;;;;;;;102.20;46.47;;;;;;;;;;5054131;28;20386;-73
2021/12/15 00:33:21;;;;;;;129.97;49.67;;;;;;;;;;5054129;28;20407;-74
2021/12/15 00:35:48;;;;;;;131.90;49.63;;;;;;;;;;5053996;28;20524;-73
2021/12/15 00:38:14;;;;;;;113.47;45.63;;;;;;;;;;5054014;28;20782;-73
2021/12/15 00:40:40;;;;;;;100.20;45.83;;;;;;;;;;5054025;28;20464;-72
2021/12/15 00:43:06;;;;;;;94.80;44.70;;;;;;;;;;5053208;28;20847;-73
2021/12/15 00:45:32;;;;;;;100.13;42.90;;;;;;;;;;5053887;28;20465;-74
2021/12/15 00:47:58;;;;;;;97.43;41.13;;;;;;;;;;5053880;28;20445;-72
2021/12/15 00:50:32;;;;;;;110.47;43.10;;;;;;;;;;5053966;28;20431;-71
2021/12/15 00:52:59;;;;;;;139.33;42.90;;;;;;;;;;5053565;28;20403;-73
2021/12/15 00:55:25;;;;;;;122.53;45.07;;;;;;;;;;5053806;28;20477;-72
2021/12/15 00:57:51;;;;;;;120.87;45.57;;;;;;;;;;5053730;28;20374;-72
2021/12/15 01:00:22;;;;;;;142.37;43.70;;;;;;;;;;5053633;28;20403;-69
2021/12/15 01:02:49;;;;;;;112.17;42.57;;;;;;;;;;5053690;28;20887;-67
2021/12/15 01:05:17;;;;;;;161.97;45.50;;;;;;;;;;5053591;28;20462;-68
2021/12/15 01:07:44;;;;;;;96.03;39.80;;;;;;;;;;5052219;28;20926;-69
2021/12/15 01:10:12;;;;;;;123.10;41.83;;;;;;;;;;5053459;28;20473;-70
2021/12/15 01:14:27;;;;;;;104.87;37.97;;;;;;;;;;5052264;28;20426;-68
2021/12/15 01:20:47;;;;;;;120.20;42.07;;;;;;;;;;5053510;28;20406;-74
2021/12/15 01:23:14;;;;;;;140.13;42.70;;;;;;;;;;5053605;28;20418;-74
2021/12/15 01:25:41;;;;;;;146.70;39.93;;;;;;;;;;5053332;28;20453;-73
2021/12/15 01:28:08;;;;;;;127.77;42.43;;;;;;;;;;5053324;28;20394;-73
2021/12/15 01:30:36;;;;;;;107.43;39.73;;;;;;;;;;5053308;28;20742;-74
2021/12/15 01:33:03;;;;;;;122.47;42.60;;;;;;;;;;5053280;28;20842;-71
2021/12/15 01:35:29;;;;;;;140.50;42.07;;;;;;;;;;5051939;28;20803;-73
2021/12/15 01:37:55;;;;;;;139.83;42.67;;;;;;;;;;5053134;28;20418;-74
2021/12/15 01:40:35;;;;;;;96.80;38.57;;;;;;;;;;5053253;28;20426;-74
2021/12/15 01:43:04;;;;;;;103.37;39.20;;;;;;;;;;5053213;28;20398;-75
2021/12/15 01:48:15;;;;;;;99.87;35.97;;;;;;;;;;5053423;28;20429;-72
2021/12/15 01:50:42;;;;;;;105.87;39.03;;;;;;;;;;5053120;28;20377;-73
2021/12/15 01:53:09;;;;;;;95.70;38.73;;;;;;;;;;5051826;28;20415;-75
2021/12/15 01:55:35;;;;;;;124.93;40.37;;;;;;;;;;5056024;28;20836;-74
2021/12/15 01:58:01;;;;;;;109.90;34.97;;;;;;;;;;5055737;28;20421;-74
2021/12/15 02:00:31;;;;;;;120.60;36.10;;;;;;;;;;5057017;28;20407;-74
2021/12/15 02:02:57;;;;;;;100.67;34.00;;;;;;;;;;5057054;28;20407;-74
2021/12/15 02:05:24;;;;;;;116.40;37.57;;;;;;;;;;5056816;28;20886;-72
2021/12/15 02:07:50;;;;;;;121.00;35.67;;;;;;;;;;5056868;28;20381;-72
2021/12/15 02:10:18;;;;;;;108.77;33.23;;;;;;;;;;5056720;28;20561;-70
2021/12/15 02:12:44;;;;;;;80.73;30.57;;;;;;;;;;5056824;28;20413;-70
2021/12/15 02:15:14;;;;;;;77.57;31.30;;;;;;;;;;5056916;28;20492;-69
2021/12/15 02:17:40;;;;;;;91.20;32.27;;;;;;;;;;5056725;28;20797;-72
2021/12/15 02:20:08;;;;;;;87.63;34.57;;;;;;;;;;5056890;28;20437;-70
2021/12/15 02:22:35;;;;;;;104.10;36.60;;;;;;;;;;5056611;28;20814;-69
2021/12/15 02:25:02;;;;;;;106.90;37.50;;;;;;;;;;5056594;28;20471;-70
2021/12/15 02:27:34;;;;;;;91.93;34.73;;;;;;;;;;5056514;28;20374;-69
2021/12/15 02:30:15;;;;;;;98.90;35.70;;;;;;;;;;5056486;28;20485;-70
2021/12/15 02:32:56;;;;;;;87.03;34.67;;;;;;;;;;5056293;28;20395;-69
2021/12/15 02:38:07;;;;;;;110.73;36.03;;;;;;;;;;5056505;28;20497;-68
2021/12/15 02:40:33;;;;;;;96.07;35.83;;;;;;;;;;5056278;28;20844;-69
2021/12/15 02:42:59;;;;;;;123.33;37.53;;;;;;;;;;5056192;28;20395;-69
2021/12/15 02:45:25;;;;;;;107.40;36.10;;;;;;;;;;5056271;28;20388;-69
2021/12/15 02:47:51;;;;;;;79.73;33.20;;;;;;;;;;5056118;28;20875;-69
2021/12/15 02:50:27;;;;;;;94.17;35.83;;;;;;;;;;5056145;28;20787;-70
2021/12/15 02:52:53;;;;;;;88.30;34.17;;;;;;;;;;5055987;28;20432;-69
2021/12/15 02:55:19;;;;;;;85.50;33.13;;;;;;;;;;5055943;28;20496;-68
2021/12/15 02:57:45;;;;;;;99.83;35.20;;;;;;;;;;5055959;28;20399;-68
2021/12/15 03:00:25;;;;;;;83.80;31.80;;;;;;;;;;5055877;28;20468;-70
2021/12/15 03:05:52;;;;;;;93.53;35.60;;;;;;;;;;5055209;28;20473;-68
2021/12/15 03:08:23;;;;;;;86.23;32.97;;;;;;;;;;5055625;28;20425;-69
2021/12/15 03:16:22;;;;;;;86.70;35.20;;;;;;;;;;5055638;28;20476;-68
2021/12/15 03:18:48;;;;;;;90.63;34.07;;;;;;;;;;5055507;28;20385;-70
2021/12/15 03:21:21;;;;;;;84.20;32.97;;;;;;;;;;5054210;28;20477;-69
2021/12/15 03:23:54;;;;;;;91.67;34.47;;;;;;;;;;5055391;28;20429;-69
2021/12/15 03:26:32;;;;;;;80.70;32.90;;;;;;;;;;5055444;28;20757;-70
2021/12/15 03:37:28;;;;;;;73.68;34.97;;;;;;;;;;5046973;28;20405;-71
2021/12/15 03:40:11;;;;;;;81.27;36.30;;;;;;;;;;5055319;28;20181;-73
2021/12/15 03:42:40;;;;;;;87.13;35.47;;;;;;;;;;5055098;28;20403;-74
2021/12/15 03:45:11;;;;;;;77.50;35.28;;;;;;;;;;5055041;28;20630;-73
2021/12/15 03:47:40;;;;;;;81.78;35.83;;;;;;;;;;5055004;28;20165;-74
2021/12/15 03:50:07;;;;;;;79.35;35.67;;;;;;;;;;5054982;28;20168;-70
2021/12/15 03:52:33;;;;;;;81.30;35.10;;;;;;;;;;5055011;28;20172;-74
2021/12/15 03:54:59;;;;;;;81.77;36.67;;;;;;;;;;5054715;28;20429;-73
2021/12/15 03:57:25;;;;;;;82.40;36.40;;;;;;;;;;5054907;28;20377;-72
2021/12/15 03:59:53;;;;;;;80.93;35.10;;;;;;;;;;5054816;28;20374;-74
2021/12/15 04:02:20;;;;;;;79.20;34.47;;;;;;;;;;5054687;28;20470;-74
2021/12/15 04:04:46;;;;;;;69.97;31.73;;;;;;;;;;5054693;28;20415;-73
2021/12/15 04:07:13;;;;;;;79.85;34.63;;;;;;;;;;5054565;28;20403;-74
2021/12/15 04:09:40;;;;;;;69.07;31.47;;;;;;;;;;5054304;28;20232;-74
2021/12/15 04:12:06;;;;;;;82.00;33.40;;;;;;;;;;5054482;28;20399;-75
2021/12/15 04:14:42;;;;;;;87.33;33.23;;;;;;;;;;5054533;28;20385;-74
2021/12/15 04:17:26;;;;;;;68.20;30.43;;;;;;;;;;5054428;28;20452;-72
2021/12/15 04:19:52;;;;;;;73.37;31.47;;;;;;;;;;5054427;28;20433;-75
2021/12/15 04:22:18;;;;;;;77.67;33.70;;;;;;;;;;5053005;28;20938;-70
2021/12/15 04:24:45;;;;;;;69.30;32.73;;;;;;;;;;5054272;28;20541;-72
2021/12/15 04:27:11;;;;;;;71.03;31.90;;;;;;;;;;5054208;28;20436;-71
2021/12/15 04:29:39;;;;;;;79.07;32.73;;;;;;;;;;5053228;28;20393;-72
2021/12/15 04:32:07;;;;;;;78.90;32.20;;;;;;;;;;5054244;28;20377;-71
2021/12/15 04:34:33;;;;;;;88.23;37.90;;;;;;;;;;5054091;28;20401;-69
2021/12/15 04:37:00;;;;;;;73.32;33.72;;;;;;;;;;5054073;28;20497;-70
2021/12/15 04:39:27;;;;;;;76.13;31.87;;;;;;;;;;5052751;28;20181;-71
2021/12/15 04:41:54;;;;;;;65.47;29.17;;;;;;;;;;5053979;28;20411;-69
2021/12/15 04:44:23;;;;;;;86.25;32.10;;;;;;;;;;5052767;28;20438;-69
2021/12/15 04:46:58;;;;;;;103.47;35.03;;;;;;;;;;5054003;28;20216;-69
2021/12/15 04:49:24;;;;;;;67.35;28.73;;;;;;;;;;5053879;28;20370;-69
2021/12/15 04:51:50;;;;;;;65.13;29.97;;;;;;;;;;5052745;28;20191;-69
2021/12/15 04:54:17;;;;;;;94.80;32.95;;;;;;;;;;5053727;28;20434;-74
2021/12/15 04:56:44;;;;;;;75.70;35.40;;;;;;;;;;5053310;28;20218;-74
2021/12/15 04:59:10;;;;;;;82.13;39.25;;;;;;;;;;5054147;28;20390;-68
2021/12/15 05:01:36;;;;;;;75.70;36.17;;;;;;;;;;5052898;28;20202;-70
2021/12/15 05:04:02;;;;;;;69.03;30.73;;;;;;;;;;5052734;28;20601;-69
2021/12/15 05:06:29;;;;;;;82.75;29.70;;;;;;;;;;5053752;28;20378;-71
2021/12/15 05:08:55;;;;;;;69.23;29.17;;;;;;;;;;5053548;28;20228;-72
2021/12/15 05:11:21;;;;;;;77.72;29.77;;;;;;;;;;5053554;28;20394;-73
2021/12/15 05:13:47;;;;;;;96.38;32.78;;;;;;;;;;5053565;28;20207;-74
2021/12/15 05:16:16;;;;;;;82.13;35.35;;;;;;;;;;5053370;28;20211;-70
2021/12/15 05:18:43;;;;;;;73.47;32.83;;;;;;;;;;5053437;28;20249;-71
2021/12/15 05:21:10;;;;;;;73.67;33.30;;;;;;;;;;5053709;28;20187;-70
2021/12/15 05:23:36;;;;;;;77.63;34.90;;;;;;;;;;5053324;28;20377;-74
2021/12/15 05:26:02;;;;;;;74.63;32.13;;;;;;;;;;5053354;28;20403;-73
2021/12/15 05:28:28;;;;;;;74.47;33.47;;;;;;;;;;5053215;28;20544;-74
2021/12/15 05:30:56;;;;;;;87.60;37.40;;;;;;;;;;5052929;28;20390;-74
2021/12/15 05:33:22;;;;;;;86.03;41.57;;;;;;;;;;5053307;28;20423;-71
2021/12/15 05:35:48;;;;;;;109.53;38.20;;;;;;;;;;5053125;28;20450;-74
2021/12/15 05:38:17;;;;;;;98.43;35.27;;;;;;;;;;5053228;28;20402;-73
2021/12/15 05:40:43;;;;;;;81.83;35.03;;;;;;;;;;5053280;28;20453;-74
2021/12/15 05:43:09;;;;;;;105.50;38.23;;;;;;;;;;5053247;28;20464;-73
2021/12/15 05:45:36;;;;;;;112.75;40.00;;;;;;;;;;5053237;28;20369;-74
2021/12/15 05:48:04;;;;;;;138.03;43.20;;;;;;;;;;5053207;28;20248;-72
2021/12/15 05:50:31;;;;;;;97.77;36.50;;;;;;;;;;5053179;28;20397;-74
2021/12/15 05:52:57;;;;;;;95.30;38.80;;;;;;;;;;5053027;28;20392;-68
2021/12/15 05:55:23;;;;;;;115.37;41.33;;;;;;;;;;5052951;28;20468;-71
2021/12/15 05:57:49;;;;;;;122.50;39.53;;;;;;;;;;5051860;28;20427;-73
2021/12/15 06:00:18;;;;;;;113.67;41.87;;;;;;;;;;5053021;28;20407;-73
2021/12/15 06:02:44;;;;;;;118.43;44.33;;;;;;;;;;5051760;28;20432;-73
2021/12/15 06:05:11;;;;;;;84.45;38.20;;;;;;;;;;5052927;28;20386;-69
2021/12/15 06:07:37;;;;;;;81.97;36.67;;;;;;;;;;5053016;28;20169;-69
2021/12/15 06:10:04;;;;;;;75.70;33.97;;;;;;;;;;5052748;28;20444;-71
2021/12/15 06:12:30;;;;;;;84.80;35.20;;;;;;;;;;5053031;28;20369;-73
2021/12/15 06:14:56;;;;;;;85.03;34.88;;;;;;;;;;5053052;28;20802;-73
2021/12/15 06:17:25;;;;;;;77.47;34.67;;;;;;;;;;5052815;28;20252;-71
2021/12/15 06:19:52;;;;;;;84.88;36.10;;;;;;;;;;5052834;28;20399;-70
2021/12/15 06:22:23;;;;;;;69.37;30.70;;;;;;;;;;5052845;28;20231;-68
2021/12/15 06:24:49;;;;;;;68.43;30.83;;;;;;;;;;5052814;28;20407;-69
2021/12/15 06:27:18;;;;;;;68.30;31.27;;;;;;;;;;5051492;28;20521;-70
2021/12/15 06:29:45;;;;;;;73.10;31.73;;;;;;;;;;5052702;28;20959;-70
2021/12/15 06:32:11;;;;;;;73.70;30.87;;;;;;;;;;5052813;28;20425;-68
2021/12/15 06:34:37;;;;;;;63.10;29.33;;;;;;;;;;5052779;28;20812;-73
2021/12/15 06:37:03;;;;;;;80.32;39.65;;;;;;;;;;5051372;28;20592;-71
2021/12/15 06:39:30;;;;;;;91.40;39.90;;;;;;;;;;5051641;28;20187;-70
2021/12/15 06:41:56;;;;;;;77.13;36.17;;;;;;;;;;5054568;28;20447;-77
2021/12/15 06:44:22;;;;;;;66.30;32.77;;;;;;;;;;5056294;28;20403;-69
2021/12/15 06:59:57;;;;;;;60.93;30.13;;;;;;;;;;5055989;28;20803;-72
2021/12/15 07:02:24;;;;;;;53.27;28.00;;;;;;;;;;5055883;28;20411;-69
2021/12/15 07:04:50;;;;;;;66.50;30.57;;;;;;;;;;5055768;28;20407;-73
2021/12/15 07:07:16;;;;;;;54.07;29.23;;;;;;;;;;5055676;28;20442;-72
2021/12/15 07:09:42;;;;;;;80.33;32.03;;;;;;;;;;5055424;28;20467;-72
2021/12/15 07:12:08;;;;;;;70.63;32.10;;;;;;;;;;5054404;28;20423;-70
2021/12/15 07:14:35;;;;;;;60.23;29.03;;;;;;;;;;5055586;28;20531;-70
2021/12/15 07:17:07;;;;;;;61.67;28.63;;;;;;;;;;5055505;28;20888;-72
2021/12/15 07:19:51;;;;;;;52.20;26.77;;;;;;;;;;5055532;28;20890;-69
2021/12/15 07:22:31;;;;;;;55.22;30.50;;;;;;;;;;5053776;28;20417;-72
2021/12/15 07:24:57;;;;;;;59.60;30.20;;;;;;;;;;5055532;28;20181;-72
2021/12/15 07:27:23;;;;;;;55.17;28.47;;;;;;;;;;5055861;28;20403;-73
2021/12/15 07:29:49;;;;;;;54.83;27.37;;;;;;;;;;5055357;28;20517;-74
2021/12/15 07:32:15;;;;;;;45.97;25.10;;;;;;;;;;5054102;28;20404;-70
2021/12/15 07:34:42;;;;;;;59.20;27.77;;;;;;;;;;5055343;28;20860;-73
2021/12/15 07:37:08;;;;;;;75.00;35.27;;;;;;;;;;5055166;28;20474;-74
2021/12/15 07:39:36;;;;;;;70.88;39.60;;;;;;;;;;5055055;28;20510;-74
2021/12/15 07:42:12;;;;;;;73.13;38.90;;;;;;;;;;5055149;28;20167;-76
2021/12/15 07:44:38;;;;;;;67.03;33.58;;;;;;;;;;5055294;28;20407;-74
2021/12/15 07:47:05;;;;;;;65.40;32.77;;;;;;;;;;5054929;28;20178;-73
2021/12/15 07:49:31;;;;;;;56.93;29.07;;;;;;;;;;5053695;28;20415;-74
2021/12/15 07:52:03;;;;;;;64.38;31.48;;;;;;;;;;5054662;28;20403;-73
2021/12/15 07:54:35;;;;;;;75.30;32.40;;;;;;;;;;5053554;28;20181;-75
2021/12/15 07:57:03;;;;;;;56.57;29.93;;;;;;;;;;5054756;28;20776;-77
2021/12/15 07:59:29;;;;;;;58.22;31.17;;;;;;;;;;5054770;28;20410;-76
2021/12/15 08:01:55;;;;;;;69.35;30.90;;;;;;;;;;5054721;28;20632;-70
2021/12/15 08:04:21;;;;;;;63.05;29.98;;;;;;;;;;5054535;28;20180;-73
2021/12/15 08:06:47;;;;;;;53.37;27.03;;;;;;;;;;5054590;28;20168;-80
2021/12/15 08:09:13;;;;;;;55.27;28.63;;;;;;;;;;5054361;28;20963;-82
2021/12/15 08:11:40;;;;;;;60.07;29.57;;;;;;;;;;5054556;28;20736;-70
2021/12/15 08:14:06;;;;;;;63.70;30.40;;;;;;;;;;5054594;28;20880;-83
2021/12/15 08:16:32;;;;;;;55.20;29.67;;;;;;;;;;5054416;28;20244;-80
2021/12/15 08:18:58;;;;;;;64.97;32.80;;;;;;;;;;5054534;28;20378;-78
2021/12/15 08:21:24;;;;;;;55.60;29.93;;;;;;;;;;5053025;28;20405;-79
2021/12/15 08:23:50;;;;;;;50.33;27.93;;;;;;;;;;5054211;28;20488;-74
2021/12/15 08:26:17;;;;;;;58.30;29.27;;;;;;;;;;5054398;28;20398;-79
2021/12/15 08:28:43;;;;;;;57.87;28.90;;;;;;;;;;5054397;28;20428;-83
2021/12/15 08:31:09;;;;;;;58.97;29.30;;;;;;;;;;5054162;28;20382;-75
2021/12/15 08:33:35;;;;;;;55.37;30.57;;;;;;;;;;5052650;28;20419;-71
2021/12/15 08:36:06;;;;;;;56.10;28.07;;;;;;;;;;5054131;28;20498;-85
2021/12/15 08:38:33;;;;;;;47.90;25.67;;;;;;;;;;5054054;28;20390;-73
2021/12/15 08:41:00;;;;;;;50.03;27.70;;;;;;;;;;5054183;28;20868;-72
2021/12/15 08:43:26;;;;;;;47.10;26.27;;;;;;;;;;5054018;28;20437;-68
2021/12/15 08:45:56;;;;;;;58.13;29.40;;;;;;;;;;5053847;28;20374;-78
2021/12/15 08:48:22;;;;;;;52.73;28.20;;;;;;;;;;5053945;28;20414;-75
2021/12/15 08:50:48;;;;;;;51.80;28.90;;;;;;;;;;5052642;28;20427;-70
2021/12/15 08:53:15;;;;;;;55.60;29.57;;;;;;;;;;5053806;28;20443;-75
2021/12/15 08:55:46;;;;;;;54.20;27.47;;;;;;;;;;5053761;28;20950;-71
2021/12/15 08:58:13;;;;;;;50.47;28.90;;;;;;;;;;5053809;28;20470;-72
2021/12/15 09:00:43;;;;;;;47.07;25.87;;;;;;;;;;5053734;28;20725;-74
2021/12/15 09:03:09;;;;;;;53.67;27.67;;;;;;;;;;5053500;28;20391;-72
2021/12/15 09:05:35;;;;;;;45.27;26.37;;;;;;;;;;5053086;28;20401;-78
2021/12/15 09:08:02;;;;;;;45.00;26.00;;;;;;;;;;5053584;28;20387;-68
2021/12/15 09:10:30;;;;;;;43.73;25.13;;;;;;;;;;5053742;28;20466;-72
2021/12/15 09:12:56;;;;;;;47.27;26.03;;;;;;;;;;5053673;28;20395;-79
2021/12/15 09:15:22;;;;;;;40.93;24.50;;;;;;;;;;5053399;28;20459;-73
2021/12/15 09:17:48;;;;;;;30.30;19.00;;;;;;;;;;5053488;28;20490;-72
2021/12/15 09:20:17;;;;;;;25.27;16.70;;;;;;;;;;5053570;28;20380;-76
2021/12/15 09:22:43;;;;;;;22.17;14.40;;;;;;;;;;5052244;28;20426;-79
2021/12/15 09:25:10;;;;;;;17.03;12.90;;;;;;;;;;5054120;28;20417;-79
2021/12/15 09:27:37;;;;;;;18.93;13.13;;;;;;;;;;5053962;28;20480;-72
2021/12/15 09:30:10;;;;;;;17.93;14.00;;;;;;;;;;5053894;28;20438;-75
2021/12/15 09:32:37;;;;;;;34.00;18.70;;;;;;;;;;5053498;28;20407;-72
2021/12/15 09:35:04;;;;;;;22.33;15.87;;;;;;;;;;5054187;28;20385;-72
2021/12/15 09:37:30;;;;;;;18.80;13.87;;;;;;;;;;5054954;28;20488;-71
2021/12/15 09:39:58;;;;;;;17.50;13.90;;;;;;;;;;5053811;28;20429;-70
2021/12/15 09:42:31;;;;;;;14.47;11.63;;;;;;;;;;5053950;28;20507;-74
2021/12/15 09:45:04;;;;;;;13.83;11.73;;;;;;;;;;5053880;28;20378;-85
2021/12/15 09:56:26;;;;;;;26.90;17.87;;;;;;;;;;5055356;28;20388;-85
2021/12/15 10:04:28;;;;;;;16.73;12.87;;;;;;;;;;5046917;28;20398;-84
2021/12/15 10:17:42;;;;;;;18.00;12.40;;;;;;;;;;5057360;28;20810;-87
2021/12/15 10:20:13;;;;;;;14.27;11.63;;;;;;;;;;5056643;28;20407;-85
2021/12/15 10:22:44;;;;;;;13.77;11.70;;;;;;;;;;5056674;28;20409;-85
2021/12/15 10:25:24;;;;;;;11.60;9.67;;;;;;;;;;5055382;28;20421;-68
2021/12/15 10:28:07;;;;;;;10.70;9.10;;;;;;;;;;5056542;28;20597;-75
2021/12/15 10:30:38;;;;;;;10.27;9.27;;;;;;;;;;5056584;28;20399;-75
2021/12/15 10:33:04;;;;;;;11.10;9.93;;;;;;;;;;5056443;28;20490;-80
2021/12/15 10:35:32;;;;;;;12.97;11.10;;;;;;;;;;5056725;28;20560;-78
2021/12/15 10:38:16;;;;;;;15.97;11.17;;;;;;;;;;5056399;28;20411;-73
2021/12/15 10:40:45;;;;;;;14.33;10.63;;;;;;;;;;5056679;28;20391;-74
2021/12/15 10:43:11;;;;;;;15.47;11.73;;;;;;;;;;5056306;28;20415;-76
2021/12/15 10:45:38;;;;;;;15.93;11.90;;;;;;;;;;5056178;28;20906;-75
2021/12/15 10:48:09;;;;;;;13.43;11.57;;;;;;;;;;5054884;28;20393;-74
2021/12/15 10:50:36;;;;;;;15.30;11.93;;;;;;;;;;5056242;28;20767;-75
2021/12/15 10:53:02;;;;;;;16.90;13.13;;;;;;;;;;5056100;28;20761;-77
2021/12/15 10:55:32;;;;;;;19.57;13.60;;;;;;;;;;5056011;28;20544;-77
2021/12/15 10:58:00;;;;;;;20.13;12.30;;;;;;;;;;5056303;28;20506;-71
2021/12/15 11:00:26;;;;;;;16.10;11.80;;;;;;;;;;5056053;28;20396;-79
2021/12/15 11:03:01;;;;;;;15.90;10.83;;;;;;;;;;5055861;28;20741;-68
2021/12/15 11:05:27;;;;;;;21.13;13.50;;;;;;;;;;5055955;28;20498;-73
2021/12/15 11:07:54;;;;;;;21.67;13.63;;;;;;;;;;5055818;28;20410;-75
2021/12/15 11:10:22;;;;;;;21.93;14.37;;;;;;;;;;5055627;28;20462;-74
2021/12/15 11:12:48;;;;;;;23.23;15.17;;;;;;;;;;5055684;28;20941;-76
2021/12/15 11:15:16;;;;;;;21.83;15.87;;;;;;;;;;5055715;28;20536;-70
2021/12/15 11:18:02;;;;;;;30.43;17.07;;;;;;;;;;5055823;28;20500;-71
2021/12/15 11:20:30;;;;;;;24.87;15.47;;;;;;;;;;5055538;28;20423;-73
2021/12/15 11:23:00;;;;;;;27.37;16.93;;;;;;;;;;5055642;28;20407;-71
2021/12/15 11:25:40;;;;;;;32.23;19.30;;;;;;;;;;5058711;28;20430;-71
2021/12/15 11:28:06;;;;;;;33.97;17.93;;;;;;;;;;5059905;28;20412;-83
2021/12/15 11:30:38;;;;;;;32.53;18.80;;;;;;;;;;5055661;28;20394;-85
2021/12/15 11:33:06;;;;;;;36.23;19.83;;;;;;;;;;5055409;28;20382;-84
2021/12/15 11:35:37;;;;;;;35.27;18.57;;;;;;;;;;5055317;28;20888;-85
2021/12/15 11:38:06;;;;;;;38.67;19.70;;;;;;;;;;5055312;28;20442;-84
2021/12/15 11:40:44;;;;;;;34.33;19.17;;;;;;;;;;5055555;28;20406;-72
2021/12/15 11:43:26;;;;;;;36.60;20.20;;;;;;;;;;5055259;28;20415;-82
2021/12/15 11:45:52;;;;;;;35.07;18.80;;;;;;;;;;5054737;28;20403;-84
2021/12/15 11:48:23;;;;;;;36.87;20.30;;;;;;;;;;5055039;28;20386;-77
2021/12/15 11:50:51;;;;;;;42.90;22.13;;;;;;;;;;5054646;28;20403;-79
2021/12/15 11:53:29;;;;;;;44.40;21.50;;;;;;;;;;5054621;28;20527;-72
2021/12/15 11:56:09;;;;;;;40.93;21.33;;;;;;;;;;5055096;28;20450;-69
2021/12/15 11:58:35;;;;;;;54.17;23.63;;;;;;;;;;5053591;28;20461;-68
2021/12/15 12:01:01;;;;;;;53.23;24.00;;;;;;;;;;5073474;28;20417;-68
2021/12/15 12:03:27;;;;;;;44.83;20.30;;;;;;;;;;5074723;28;20769;-68
2021/12/15 12:05:53;;;;;;;48.30;22.67;;;;;;;;;;5066063;28;20743;-66
2021/12/15 12:08:19;;;;;;;54.57;21.50;;;;;;;;;;5054538;28;20403;-66
2021/12/15 12:10:48;;;;;;;56.83;22.07;;;;;;;;;;5054320;28;20429;-67
2021/12/15 12:13:23;;;;;;;44.17;22.70;;;;;;;;;;5054278;28;20396;-66
2021/12/15 12:15:50;;;;;;;47.50;22.87;;;;;;;;;;5054661;28;20808;-65
2021/12/15 12:18:19;;;;;;;49.00;23.50;;;;;;;;;;5054520;28;20483;-67
2021/12/15 12:20:47;;;;;;;46.17;23.57;;;;;;;;;;5053108;28;20780;-66
2021/12/15 12:23:15;;;;;;;55.17;23.10;;;;;;;;;;5054265;28;20836;-66
2021/12/15 12:25:46;;;;;;;58.13;23.00;;;;;;;;;;5054482;28;20406;-65
2021/12/15 12:28:16;;;;;;;48.87;22.07;;;;;;;;;;5054086;28;20413;-65
2021/12/15 12:30:46;;;;;;;49.67;25.13;;;;;;;;;;5054111;28;20399;-65
2021/12/15 12:33:14;;;;;;;49.03;23.43;;;;;;;;;;5054127;28;20411;-67
2021/12/15 12:35:46;;;;;;;56.73;23.50;;;;;;;;;;5052845;28;20904;-65
2021/12/15 12:38:14;;;;;;;56.43;23.30;;;;;;;;;;5053843;28;20422;-66
2021/12/15 12:40:48;;;;;;;61.50;23.83;;;;;;;;;;5052525;28;20414;-70
2021/12/15 12:43:19;;;;;;;57.00;23.23;;;;;;;;;;5052763;28;20794;-68
2021/12/15 12:45:53;;;;;;;61.83;25.23;;;;;;;;;;5053969;28;20381;-67
2021/12/15 12:57:55;;;;;;;61.37;24.77;;;;;;;;;;5053836;28;20474;-67
2021/12/15 12:59:27;;;;;;;64.57;22.17;;;;;;;;;;5053629;28;20446;-67
2021/12/15 13:01:53;;;;;;;58.00;23.80;;;;;;;;;;5053529;28;20809;-67
2021/12/15 13:04:20;;;;;;;55.20;23.70;;;;;;;;;;5052425;28;20774;-73
2021/12/15 13:06:46;;;;;;;57.63;23.40;;;;;;;;;;5053651;28;20397;-67
2021/12/15 13:09:16;;;;;;;50.17;22.60;;;;;;;;;;5053398;28;20843;-66
2021/12/15 13:11:47;;;;;;;57.87;24.27;;;;;;;;;;5053722;28;20388;-67
2021/12/15 13:14:15;;;;;;;50.57;24.20;;;;;;;;;;5053583;28;20403;-68
2021/12/15 13:16:53;;;;;;;57.47;25.37;;;;;;;;;;5053401;28;20506;-67
2021/12/15 13:19:19;;;;;;;67.73;26.57;;;;;;;;;;5053713;28;20409;-69
2021/12/15 13:22:19;;;;;;;55.73;26.27;;;;;;;;;;5053668;28;20403;-71
2021/12/15 13:30:39;;;;;;;56.20;25.20;;;;;;;;;;5053461;28;20449;-72
2021/12/15 13:33:11;;;;;;;61.63;24.40;;;;;;;;;;5053640;28;20388;-67
2021/12/15 13:35:43;;;;;;;53.33;24.40;;;;;;;;;;5053257;28;20433;-66
2021/12/15 13:38:09;;;;;;;52.23;23.20;;;;;;;;;;5051924;28;20466;-67
2021/12/15 13:40:50;;;;;;;53.43;24.07;;;;;;;;;;5053366;28;20819;-71
2021/12/15 13:43:34;;;;;;;66.97;27.63;;;;;;;;;;5053235;28;20413;-73
2021/12/15 13:46:00;;;;;;;61.40;24.30;;;;;;;;;;5053268;28;20407;-70
2021/12/15 13:48:45;;;;;;;56.80;25.07;;;;;;;;;;5053271;28;20869;-73
2021/12/15 13:51:11;;;;;;;53.50;24.37;;;;;;;;;;5054166;28;20910;-74
2021/12/15 13:53:37;;;;;;;53.33;22.97;;;;;;;;;;5057208;28;20776;-71
2021/12/15 13:56:04;;;;;;;61.33;26.07;;;;;;;;;;5057278;28;20462;-69
2021/12/15 13:58:32;;;;;;;54.80;24.00;;;;;;;;;;5057395;28;20403;-67
2021/12/15 14:01:00;;;;;;;56.73;25.13;;;;;;;;;;5056962;28;20506;-67
2021/12/15 14:03:32;;;;;;;59.63;25.70;;;;;;;;;;5057073;28;20369;-64
2021/12/15 14:06:04;;;;;;;68.23;26.20;;;;;;;;;;5056978;28;20974;-65
2021/12/15 14:08:38;;;;;;;63.97;27.53;;;;;;;;;;5056739;28;20426;-69
2021/12/15 14:11:16;;;;;;;59.03;26.80;;;;;;;;;;5056886;28;20448;-66
2021/12/15 14:13:55;;;;;;;62.90;26.40;;;;;;;;;;5056816;28;20492;-67
2021/12/15 14:16:29;;;;;;;50.57;24.00;;;;;;;;;;5056688;28;20516;-65
2021/12/15 14:18:56;;;;;;;61.27;26.70;;;;;;;;;;5056701;28;20411;-65
2021/12/15 14:21:22;;;;;;;61.77;26.60;;;;;;;;;;5056687;28;20413;-66
2021/12/15 14:23:49;;;;;;;53.57;23.03;;;;;;;;;;5056635;28;20508;-66
2021/12/15 14:26:18;;;;;;;55.47;23.83;;;;;;;;;;5056581;28;20432;-67
2021/12/15 14:28:45;;;;;;;47.73;23.17;;;;;;;;;;5056477;28;20508;-66
2021/12/15 14:31:13;;;;;;;52.80;24.37;;;;;;;;;;5055419;28;20809;-66
2021/12/15 14:34:00;;;;;;;54.17;23.47;;;;;;;;;;5056473;28;20549;-66
2021/12/15 14:36:28;;;;;;;49.40;23.80;;;;;;;;;;5055955;28;20474;-67
2021/12/15 14:38:55;;;;;;;51.73;24.23;;;;;;;;;;5056265;28;20418;-66
2021/12/15 14:41:26;;;;;;;56.30;25.37;;;;;;;;;;5056325;28;20378;-68
2021/12/15 14:44:05;;;;;;;56.83;26.03;;;;;;;;;;5056307;28;20522;-67
2021/12/15 14:46:39;;;;;;;55.30;25.30;;;;;;;;;;5056297;28;20477;-67
2021/12/15 14:49:05;;;;;;;53.97;25.33;;;;;;;;;;5056233;28;20412;-67
2021/12/15 14:51:32;;;;;;;54.37;24.30;;;;;;;;;;5056186;28;20404;-68
2021/12/15 14:53:58;;;;;;;48.77;22.83;;;;;;;;;;5055985;28;20419;-67
2021/12/15 14:56:24;;;;;;;45.60;22.40;;;;;;;;;;5055963;28;20472;-68
2021/12/15 14:58:54;;;;;;;51.90;23.87;;;;;;;;;;5056013;28;20435;-67
2021/12/15 15:01:21;;;;;;;51.00;25.20;;;;;;;;;;5055836;28;20418;-68
2021/12/15 15:03:58;;;;;;;47.03;22.70;;;;;;;;;;5054089;28;20422;-69
2021/12/15 15:06:25;;;;;;;50.70;23.20;;;;;;;;;;5055862;28;20772;-67
2021/12/15 15:08:51;;;;;;;45.30;21.20;;;;;;;;;;5054356;28;20458;-67
2021/12/15 15:11:21;;;;;;;44.10;23.10;;;;;;;;;;5055782;28;20511;-69
2021/12/15 15:13:51;;;;;;;52.60;23.57;;;;;;;;;;5055720;28;20411;-67
2021/12/15 15:16:21;;;;;;;55.70;29.63;;;;;;;;;;5054487;28;20435;-69
2021/12/15 15:18:47;;;;;;;60.10;26.50;;;;;;;;;;5054370;28;20945;-68
2021/12/15 15:21:13;;;;;;;50.73;24.07;;;;;;;;;;5055535;28;20407;-69
2021/12/15 15:23:41;;;;;;;52.50;24.10;;;;;;;;;;5055757;28;20431;-67
2021/12/15 15:26:10;;;;;;;47.47;23.63;;;;;;;;;;5055550;28;20772;-67
2021/12/15 15:28:39;;;;;;;61.47;26.20;;;;;;;;;;5055455;28;20538;-70
2021/12/15 15:31:07;;;;;;;59.23;28.47;;;;;;;;;;5055376;28;20878;-66
2021/12/15 15:33:34;;;;;;;73.00;30.87;;;;;;;;;;5055328;28;20442;-68
2021/12/15 15:36:05;;;;;;;67.73;34.83;;;;;;;;;;5055153;28;20477;-67
2021/12/15 15:38:38;;;;;;;66.77;33.23;;;;;;;;;;5055088;28;20406;-67
2021/12/15 15:41:15;;;;;;;58.87;31.10;;;;;;;;;;5053673;28;20427;-65
2021/12/15 15:43:44;;;;;;;53.27;30.00;;;;;;;;;;5055152;28;20993;-67
2021/12/15 15:46:12;;;;;;;62.60;29.00;;;;;;;;;;5055223;28;20407;-66